Terminal Aerodrome Forecast
Issued by NWS Denver/Boulder, CO

Home | Current Version | Previous Version | Text Only | Print | Product List | Glossary On
Versions: 1 2 3 4 5 6 7 8 9 10 11 12 13 14 15 16 17 18 19 20 21 22 23 24 25 26 27 28 29 30 31 32 33 34 35 36 37 38 39 40 41 42 43 44 45 46 47 48 49 50
000
FTUS45 KBOU 271444 AAB
TAFDEN
TAF AMD
KDEN 271444Z 2715/2818 28010KT P6SM FEW050 BKN080 BKN120
     FM271600 32010KT P6SM FEW050 BKN070 BKN100
      TEMPO 2716/2720 -SHRA SCT030 OVC050
     FM272000 35013G21KT P6SM SCT070 BKN100
     FM280100 05010KT P6SM SCT050 BKN080
     FM280500 23010KT P6SM SCT100 BKN120
     FM281500 30010KT P6SM SCT100 BKN120=

USA.gov is the U.S. government's official web portal to all federal, state and local government web resources and services.